Pagrindinis puslapis
METAR-TAF:

METAR-TAF

Oro uostai :

Cairo Regional Airport

Cairo, Ilinojus, Jungtinės Amerikos Valstijos

platuma: 37-03-52N, ilguma: 089-13-10W, Aukštis: 98 m

Dabartinis oras

Ataskaita buvo paskelbta 16 minutes, ne 12:35 UTC
Ramus vėjas
Temperatūra 2°C
Drėgmė 87%
Slėgis 1019 hPa
Matomumas: 16.1 km
Apsiniaukę ne aukštis 2500 ft

METAR: KCIR 251235Z AUTO 00000KT 10SM OVC025 02/00 A3009 RMK AO2 T00201005

Laikas: 06:51 (12:51 UTC)


TAF: trūkstamas

Orai ataskaitas ir orų prognozės (METAR, TAF).

turimą stotys yra geltonos ir raudonos taškus žemėlapyje.

Perkelti pele per norėdami pamatyti stoties vardą.

Tada spustelėkite, norėdami matyti oro stebėjimo ir prognozės.

Norėdami pakeisti žemėlapį: spustelėkite ant žalios mygtukų su juodo kryžiaus žemyn,; žalią mygtuką su brūkšneliu, jei norite nutolinti; arba žalių rodyklių gretimoms žemėlapius.


METAR-TAF: